Time;durP1;ratioP1;P1;durP2;ratioP2;P2;SDS_P1;SDS_P2;PMS_P1;PMS_P2;Temp;Humidity;BMP_temperature;BMP_pressure;BME280_temperature;BME280_humidity;BME280_pressure;Samples;Min_cycle;Max_cycle;Signal;HPM_P1;HPM_P2
2023/01/21 00:02:16;;;;;;;1999.90;999.90;;;;;;;-0.21;100.00;94820.50;5067747;28;20183;-67
2023/01/21 00:04:41;;;;;;;1999.90;999.90;;;;;;;-0.20;100.00;94826.66;5067902;28;20201;-67
2023/01/21 00:07:07;;;;;;;1999.90;999.90;;;;;;;-0.40;100.00;94827.72;5068058;28;20162;-67
2023/01/21 00:09:33;;;;;;;1999.90;999.90;;;;;;;-0.32;100.00;94826.75;5067667;28;20166;-67
2023/01/21 00:12:01;;;;;;;1999.90;999.90;;;;;;;-0.31;100.00;94817.56;5067231;28;20168;-67
2023/01/21 00:14:31;;;;;;;1999.90;999.90;;;;;;;-0.34;100.00;94816.38;5067113;28;20195;-66
2023/01/21 00:16:57;;;;;;;1999.90;999.90;;;;;;;-0.24;100.00;94815.06;5066532;28;20455;-67
2023/01/21 00:19:24;;;;;;;1999.90;999.90;;;;;;;-0.37;100.00;94814.38;5066950;28;20188;-66
2023/01/21 00:21:49;;;;;;;1999.90;999.90;;;;;;;-0.30;100.00;94811.09;5067581;28;20352;-69
2023/01/21 00:24:15;;;;;;;1999.90;999.90;;;;;;;-0.21;100.00;94803.63;5067052;28;20170;-67
2023/01/21 00:26:40;;;;;;;1999.90;999.90;;;;;;;-0.31;100.00;94809.53;5066990;28;20242;-67
2023/01/21 00:29:06;;;;;;;1999.90;999.90;;;;;;;-0.37;100.00;94809.03;5067764;28;20244;-66
2023/01/21 00:31:31;;;;;;;1999.90;999.90;;;;;;;-0.39;100.00;94807.81;5067397;28;20178;-68
2023/01/21 00:33:57;;;;;;;1999.90;999.90;;;;;;;-0.40;100.00;94812.41;5067395;28;20163;-68
2023/01/21 00:36:28;;;;;;;1999.90;999.90;;;;;;;-0.37;100.00;94818.97;5066835;28;20210;-68
2023/01/21 00:38:53;;;;;;;1999.90;999.90;;;;;;;-0.41;100.00;94826.16;5067426;28;20164;-67
2023/01/21 00:41:18;;;;;;;1999.90;999.90;;;;;;;-0.40;100.00;94827.72;5067511;28;20205;-67
2023/01/21 00:43:44;;;;;;;1999.90;999.90;;;;;;;-0.41;100.00;94831.50;5067150;28;20336;-66
2023/01/21 00:46:10;;;;;;;1999.90;999.90;;;;;;;-0.42;100.00;94829.97;5067079;28;20171;-68
2023/01/21 00:48:36;;;;;;;1999.90;999.90;;;;;;;-0.39;100.00;94842.69;5066907;28;20224;-68
2023/01/21 00:51:02;;;;;;;1999.90;999.90;;;;;;;-0.39;100.00;94842.69;5066807;28;20163;-68
2023/01/21 00:53:30;;;;;;;1999.90;999.90;;;;;;;-0.49;100.00;94852.03;5067249;28;20237;-68
2023/01/21 00:56:06;;;;;;;1999.90;999.90;;;;;;;-0.44;100.00;94848.28;5067141;28;20195;-68
2023/01/21 00:58:32;;;;;;;1999.90;999.90;;;;;;;-0.37;100.00;94843.09;5066938;28;20158;-70
2023/01/21 01:01:15;;;;;;;1999.90;999.90;;;;;;;-0.44;100.00;94841.03;5066717;28;20166;-69
2023/01/21 01:03:41;;;;;;;1999.90;999.90;;;;;;;-0.47;100.00;94843.63;5067571;28;20158;-70
2023/01/21 01:06:28;;;;;;;1999.90;999.90;;;;;;;-0.44;100.00;94849.06;5067049;28;20173;-68
2023/01/21 01:08:56;;;;;;;1999.90;999.90;;;;;;;-0.41;100.00;94850.28;5066033;28;20186;-69
2023/01/21 01:11:24;;;;;;;1999.90;999.90;;;;;;;-0.46;100.00;94855.91;5066972;28;20208;-69
2023/01/21 01:13:49;;;;;;;1999.90;999.90;;;;;;;-0.47;100.00;94849.75;5066744;28;20217;-69
2023/01/21 01:16:15;;;;;;;1999.90;999.90;;;;;;;-0.45;100.00;94852.09;5066516;28;20213;-69
2023/01/21 01:18:41;;;;;;;1999.90;999.90;;;;;;;-0.47;100.00;94854.38;5066498;28;20352;-69
2023/01/21 01:21:12;;;;;;;1999.90;999.90;;;;;;;-0.48;100.00;94850.09;5066367;28;20194;-68
2023/01/21 01:23:38;;;;;;;1999.90;999.90;;;;;;;-0.50;100.00;94860.41;5066763;28;20163;-68
2023/01/21 01:26:05;;;;;;;1999.90;999.90;;;;;;;-0.52;100.00;94859.97;5066408;28;20200;-69
2023/01/21 01:28:32;;;;;;;1999.90;999.90;;;;;;;-0.50;100.00;94860.41;5067825;28;20190;-70
2023/01/21 01:30:59;;;;;;;1999.90;999.90;;;;;;;-0.48;100.00;94858.16;5070386;28;20167;-69
2023/01/21 01:33:25;;;;;;;1999.90;999.90;;;;;;;-0.49;100.00;94859.28;5070550;28;20242;-69
2023/01/21 01:35:51;;;;;;;1999.90;999.90;;;;;;;-0.47;100.00;94859.72;5070297;28;20197;-69
2023/01/21 01:38:19;;;;;;;1999.90;999.90;;;;;;;-0.62;100.00;94860.50;5070444;28;20185;-69
2023/01/21 01:40:46;;;;;;;1999.90;999.90;;;;;;;-0.63;100.00;94864.28;5069960;28;20171;-68
2023/01/21 01:43:48;;;;;;;1999.90;999.90;;;;;;;-0.61;100.00;94854.00;5069882;28;20170;-67
2023/01/21 01:46:14;;;;;;;1999.90;999.90;;;;;;;-0.59;100.00;94857.91;5033325;28;20188;-68
2023/01/21 01:48:43;;;;;;;1999.90;999.90;;;;;;;-0.58;100.00;94848.72;5070038;28;20220;-67
2023/01/21 01:51:09;;;;;;;1999.90;999.90;;;;;;;-0.55;100.00;94855.28;5070102;28;20166;-67
2023/01/21 01:53:38;;;;;;;1999.90;999.90;;;;;;;-0.60;100.00;94860.91;5070194;28;20281;-67
2023/01/21 01:56:04;;;;;;;1999.90;999.90;;;;;;;-0.62;100.00;94855.16;5070048;28;20247;-66
2023/01/21 01:58:31;;;;;;;1999.90;999.90;;;;;;;-0.61;100.00;94857.44;5069610;28;20170;-67
2023/01/21 02:00:57;;;;;;;1999.90;999.90;;;;;;;-0.64;100.00;94854.69;5069598;28;20171;-68
2023/01/21 02:03:43;;;;;;;1999.90;999.90;;;;;;;-0.64;100.00;94849.34;5069964;28;20162;-67
2023/01/21 02:06:08;;;;;;;1999.90;999.90;;;;;;;-0.65;100.00;94853.16;5069963;28;20178;-67
2023/01/21 02:08:38;;;;;;;1999.90;999.90;;;;;;;-0.72;100.00;94859.09;5069369;28;20174;-69
2023/01/21 02:11:11;;;;;;;1999.90;999.90;;;;;;;-0.67;100.00;94855.38;5069906;28;20240;-68
2023/01/21 02:13:37;;;;;;;1999.90;999.90;;;;;;;-0.67;100.00;94855.38;5069281;28;20197;-67
2023/01/21 02:16:15;;;;;;;1999.90;999.90;;;;;;;-0.68;100.00;94867.22;5069677;28;20198;-68
2023/01/21 02:18:44;;;;;;;1999.90;999.90;;;;;;;-0.66;100.00;94859.63;5069035;28;20174;-68
2023/01/21 02:21:44;;;;;;;1999.90;999.90;;;;;;;-0.69;100.00;94866.44;5069168;28;20197;-68
2023/01/21 02:24:47;;;;;;;1999.90;999.90;;;;;;;-0.69;100.00;94869.13;5069617;28;20183;-69
2023/01/21 02:27:30;;;;;;;1999.90;999.90;;;;;;;-0.71;100.00;94863.34;5069588;28;20153;-66
2023/01/21 02:30:04;;;;;;;1999.90;999.90;;;;;;;-0.68;100.00;94870.69;5069529;28;20159;-69
2023/01/21 02:32:51;;;;;;;1999.90;999.90;;;;;;;-0.65;100.00;94863.88;5069677;28;20217;-69
2023/01/21 02:35:30;;;;;;;1999.90;999.90;;;;;;;-0.80;100.00;94867.31;5069116;28;20207;-70
2023/01/21 02:38:05;;;;;;;1999.90;999.90;;;;;;;-0.77;100.00;94866.59;5069387;28;20235;-69
2023/01/21 02:40:47;;;;;;;1999.90;999.90;;;;;;;-0.71;100.00;94865.25;5068665;28;20160;-69
2023/01/21 02:43:18;;;;;;;1999.90;999.90;;;;;;;-0.74;100.00;94860.56;5069264;28;20435;-69
2023/01/21 02:46:04;;;;;;;1999.90;999.90;;;;;;;-0.65;100.00;94858.50;5069168;28;20162;-69
2023/01/21 02:48:41;;;;;;;1999.90;999.90;;;;;;;-0.70;100.00;94862.22;5065299;28;20206;-70
2023/01/21 02:51:06;;;;;;;1999.90;999.90;;;;;;;-0.69;100.00;94873.72;5065844;28;20190;-69
2023/01/21 02:53:34;;;;;;;1999.90;999.90;;;;;;;-0.71;100.00;94867.91;5066090;28;20167;-70
2023/01/21 02:56:17;;;;;;;1999.90;999.90;;;;;;;-0.69;100.00;94863.00;5065127;28;20256;-69
2023/01/21 02:58:52;;;;;;;1999.90;999.90;;;;;;;-0.64;100.00;94868.88;5065624;28;20167;-70
2023/01/21 03:01:17;;;;;;;1999.90;999.90;;;;;;;-0.65;100.00;94869.22;5065729;28;20167;-68
2023/01/21 03:03:52;;;;;;;1999.90;999.90;;;;;;;-0.65;100.00;94859.28;5065521;28;20254;-68
2023/01/21 03:06:17;;;;;;;1999.90;999.90;;;;;;;-0.61;100.00;94856.69;5065079;28;20237;-68
2023/01/21 03:08:52;;;;;;;1999.90;999.90;;;;;;;-0.64;100.00;94865.41;5065485;28;20172;-69
2023/01/21 03:11:20;;;;;;;1999.90;999.90;;;;;;;-0.65;100.00;94863.88;5065509;28;20167;-69
2023/01/21 03:17:11;;;;;;;1999.90;999.90;;;;;;;-0.62;100.00;94860.50;5065807;28;20520;-69
2023/01/21 03:19:39;;;;;;;1999.90;999.90;;;;;;;-0.66;100.00;94863.06;5065227;28;20198;-68
2023/01/21 03:22:11;;;;;;;1999.90;999.90;;;;;;;-0.68;100.00;94867.22;5064672;28;20169;-68
2023/01/21 03:24:39;;;;;;;1999.90;999.90;;;;;;;-0.66;100.00;94859.63;5065401;28;20167;-68
2023/01/21 03:27:06;;;;;;;1999.90;999.90;;;;;;;-0.64;100.00;94855.50;5064633;28;20167;-68
2023/01/21 03:29:33;;;;;;;1999.90;999.90;;;;;;;-0.62;100.00;94855.16;5065040;28;20163;-68
2023/01/21 03:32:04;;;;;;;1999.90;999.90;;;;;;;-0.62;100.00;94863.19;5064591;28;20174;-68
2023/01/21 03:34:35;;;;;;;1999.90;999.90;;;;;;;-0.60;100.00;94858.25;5064598;28;20206;-68
2023/01/21 03:37:08;;;;;;;1999.90;999.90;;;;;;;-0.59;100.00;94862.47;5064460;28;20218;-70
2023/01/21 03:40:01;;;;;;;1999.90;999.90;;;;;;;-0.61;100.00;94854.00;5064909;28;20161;-70
2023/01/21 03:42:27;;;;;;;1999.90;999.90;;;;;;;-0.64;100.00;94852.00;5064848;28;20232;-70
2023/01/21 03:44:53;;;;;;;1999.90;999.90;;;;;;;-0.63;100.00;94845.53;5064297;28;20165;-69
2023/01/21 03:47:30;;;;;;;1999.90;999.90;;;;;;;-0.64;100.00;94855.50;5064478;28;20168;-69
2023/01/21 03:50:02;;;;;;;1999.90;999.90;;;;;;;-0.63;100.00;94845.53;5063988;28;20220;-67
2023/01/21 03:52:27;;;;;;;1999.90;999.90;;;;;;;-0.56;100.00;94837.66;5064404;28;20167;-68
2023/01/21 03:54:53;;;;;;;1999.90;999.90;;;;;;;-0.57;100.00;94849.50;5064019;28;20196;-68
2023/01/21 03:57:18;;;;;;;1999.90;999.90;;;;;;;-0.58;100.00;94847.97;5064094;28;20186;-69
2023/01/21 03:59:44;;;;;;;1999.90;999.90;;;;;;;-0.59;100.00;94846.38;5064322;28;20167;-68
2023/01/21 04:02:10;;;;;;;1999.90;999.90;;;;;;;-0.54;100.00;94838.09;5064541;28;20166;-68
2023/01/21 04:04:35;;;;;;;1999.90;999.90;;;;;;;-0.55;100.00;94849.94;5063991;28;20239;-68
2023/01/21 04:07:01;;;;;;;1999.90;999.90;;;;;;;-0.62;100.00;94847.09;5064490;28;20167;-68
2023/01/21 04:09:26;;;;;;;1999.90;999.90;;;;;;;-0.61;100.00;94837.94;5063591;28;20170;-68
2023/01/21 04:11:52;;;;;;;1999.90;999.90;;;;;;;-0.62;100.00;94842.50;5064508;28;20169;-69
2023/01/21 04:14:17;;;;;;;1999.90;999.90;;;;;;;-0.64;100.00;94843.97;5063787;28;20165;-69
2023/01/21 04:16:42;;;;;;;1999.90;999.90;;;;;;;-0.63;100.00;94845.53;5063435;28;20218;-69
2023/01/21 04:19:08;;;;;;;1999.90;999.90;;;;;;;-0.63;100.00;94842.84;5063653;28;20197;-69
2023/01/21 04:21:33;;;;;;;1999.90;999.90;;;;;;;-0.60;100.00;94842.16;5063781;28;20168;-69
2023/01/21 04:23:59;;;;;;;1999.90;999.90;;;;;;;-0.60;100.00;94842.16;5063692;28;20166;-67
2023/01/21 04:26:24;;;;;;;1999.90;999.90;;;;;;;-0.57;100.00;94841.47;5064258;28;20171;-68
2023/01/21 04:28:49;;;;;;;1999.90;999.90;;;;;;;-0.53;100.00;94839.66;5064245;28;20169;-68
2023/01/21 04:31:15;;;;;;;1999.90;999.90;;;;;;;-0.53;100.00;94842.34;5063740;28;20241;-69
2023/01/21 04:33:40;;;;;;;1999.90;999.90;;;;;;;-0.62;100.00;94841.75;5063207;28;20172;-68
2023/01/21 04:36:06;;;;;;;1999.90;999.90;;;;;;;-0.67;100.00;94845.44;5064119;28;20194;-68
2023/01/21 04:38:31;;;;;;;1999.90;999.90;;;;;;;-0.61;100.00;94844.06;5064107;28;20175;-68
2023/01/21 04:40:56;;;;;;;1999.90;999.90;;;;;;;-0.60;100.00;94845.63;5063765;28;20389;-69
2023/01/21 04:43:22;;;;;;;1999.90;999.90;;;;;;;-0.69;100.00;94846.94;5064023;28;20164;-69
2023/01/21 04:45:48;;;;;;;1999.90;999.90;;;;;;;-0.68;100.00;94846.59;5063553;28;20168;-68
2023/01/21 04:48:14;;;;;;;1999.90;999.90;;;;;;;-0.64;100.00;94843.97;5064557;28;20499;-67
2023/01/21 04:50:40;;;;;;;1999.90;999.90;;;;;;;-0.68;100.00;94853.84;5067411;28;20175;-70
2023/01/21 04:53:05;;;;;;;1999.90;999.90;;;;;;;-0.78;100.00;94860.50;5066880;28;20175;-71
2023/01/21 04:55:30;;;;;;;1999.90;999.90;;;;;;;-0.79;100.00;94868.88;5066800;28;20267;-69
2023/01/21 04:57:56;;;;;;;1999.90;999.90;;;;;;;-0.80;100.00;94870.00;5066761;28;20167;-69
2023/01/21 05:00:21;;;;;;;1999.90;999.90;;;;;;;-0.87;100.00;94880.53;5067219;28;20169;-71
2023/01/21 05:02:47;;;;;;;1999.90;999.90;;;;;;;-0.88;100.00;94889.66;5066505;28;20176;-70
2023/01/21 05:05:12;;;;;;;1999.90;999.90;;;;;;;-0.89;100.00;94886.22;5070957;28;20206;-69
2023/01/21 05:07:37;;;;;;;1999.90;999.90;;;;;;;-0.93;100.00;94884.56;5071322;28;20175;-69
2023/01/21 05:10:03;;;;;;;1999.90;999.90;;;;;;;-0.87;100.00;94888.56;5070593;28;20173;-69
2023/01/21 05:12:29;;;;;;;1999.90;999.90;;;;;;;-0.86;100.00;94876.72;5070476;28;20175;-69
2023/01/21 05:14:56;;;;;;;1999.90;999.90;;;;;;;-0.87;100.00;94883.22;5070348;28;20212;-69
2023/01/21 05:17:22;;;;;;;1999.90;999.90;;;;;;;-0.93;100.00;94890.72;5070532;28;20171;-70
2023/01/21 05:19:49;;;;;;;1999.90;999.90;;;;;;;-0.91;100.00;94890.38;5070388;28;20195;-69
2023/01/21 05:22:15;;;;;;;1999.90;999.90;;;;;;;-0.98;100.00;94888.25;5070457;28;20178;-69
2023/01/21 05:24:40;;;;;;;1999.90;999.90;;;;;;;-0.97;100.00;94886.38;5070144;28;20171;-69
2023/01/21 05:27:05;;;;;;;1999.90;999.90;;;;;;;-1.04;100.00;94894.22;5070756;28;20170;-69
2023/01/21 05:29:31;;;;;;;1999.90;999.90;;;;;;;-1.02;100.00;94886.63;5070371;28;20181;-69
2023/01/21 05:31:56;;;;;;;1999.90;999.90;;;;;;;-1.04;100.00;94888.88;5070188;28;20299;-71
2023/01/21 05:34:21;;;;;;;1999.90;999.90;;;;;;;-1.11;100.00;94894.03;5070369;28;20174;-70
2023/01/21 05:36:47;;;;;;;1999.90;999.90;;;;;;;-1.15;100.00;94903.88;5070642;28;20172;-69
2023/01/21 05:39:12;;;;;;;1999.90;999.90;;;;;;;-1.24;100.00;94905.94;5070491;28;20171;-70
2023/01/21 05:41:37;;;;;;;1999.90;999.90;;;;;;;-1.28;100.00;94907.72;5070819;28;20170;-70
2023/01/21 05:44:03;;;;;;;1999.90;999.90;;;;;;;-1.34;100.00;94917.88;5070251;28;20171;-70
2023/01/21 05:46:28;;;;;;;1999.90;999.90;;;;;;;-1.38;100.00;94922.34;5069821;28;20181;-70
2023/01/21 05:48:54;;;;;;;1999.90;999.90;;;;;;;-1.43;100.00;94929.81;5069747;28;20282;-70
2023/01/21 05:51:19;;;;;;;1999.90;999.90;;;;;;;-1.42;100.00;94915.34;5070003;28;20167;-70
2023/01/21 05:53:45;;;;;;;1999.90;999.90;;;;;;;-1.46;100.00;94931.28;5070016;28;20194;-69
2023/01/21 05:56:10;;;;;;;1999.90;999.90;;;;;;;-1.44;100.00;94922.94;5069630;28;20193;-70
2023/01/21 05:58:36;;;;;;;1999.90;999.90;;;;;;;-1.43;100.00;94924.47;5069504;28;20166;-68
2023/01/21 06:01:02;;;;;;;1999.90;999.90;;;;;;;-1.39;100.00;94925.34;5069712;28;20207;-69
2023/01/21 06:03:28;;;;;;;1999.90;999.90;;;;;;;-1.45;100.00;94916.78;5069629;28;20173;-70
2023/01/21 06:05:53;;;;;;;1999.90;999.90;;;;;;;-1.44;100.00;94920.25;5070022;28;20173;-70
2023/01/21 06:08:19;;;;;;;1999.90;999.90;;;;;;;-1.51;100.00;94918.16;5069798;28;20234;-70
2023/01/21 06:10:44;;;;;;;1999.90;999.90;;;;;;;-1.40;100.00;94908.53;5069345;28;20178;-69
2023/01/21 06:13:11;;;;;;;1999.90;999.90;;;;;;;-1.37;100.00;94901.72;5069900;28;20208;-70
2023/01/21 06:15:37;;;;;;;1999.90;999.90;;;;;;;-1.33;100.00;94907.94;5068084;28;20239;-70
2023/01/21 06:18:02;;;;;;;1999.90;999.90;;;;;;;-1.37;100.00;94907.06;5069620;28;20236;-70
2023/01/21 06:20:30;;;;;;;1999.90;999.90;;;;;;;-1.43;100.00;94914.56;5069307;28;20188;-70
2023/01/21 06:22:57;;;;;;;1999.90;999.90;;;;;;;-1.39;100.00;94925.34;5069665;28;20166;-69
2023/01/21 06:25:24;;;;;;;1999.90;999.90;;;;;;;-1.40;100.00;94918.44;5069097;28;20210;-69
2023/01/21 06:27:49;;;;;;;1999.90;999.90;;;;;;;-1.36;100.00;94909.41;5069127;28;20167;-70
2023/01/21 06:30:15;;;;;;;1999.90;999.90;;;;;;;-1.35;100.00;94921.66;5069797;28;20216;-69
2023/01/21 06:32:40;;;;;;;1999.90;999.90;;;;;;;-1.29;100.00;94916.84;5069467;28;20219;-69
2023/01/21 06:35:06;;;;;;;1999.90;999.90;;;;;;;-1.34;100.00;94930.50;5068858;28;20261;-69
2023/01/21 06:37:31;;;;;;;1999.90;999.90;;;;;;;-1.35;100.00;94928.94;5068796;28;20166;-67
2023/01/21 06:39:57;;;;;;;1999.90;999.90;;;;;;;-1.44;100.00;94933.63;5069191;28;20314;-67
2023/01/21 06:42:22;;;;;;;1999.90;999.90;;;;;;;-1.51;100.00;94938.78;5068609;28;20174;-68
2023/01/21 06:44:48;;;;;;;1999.90;999.90;;;;;;;-1.61;100.00;94939.22;5068751;28;20232;-68
2023/01/21 06:47:13;;;;;;;1999.90;999.90;;;;;;;-1.60;100.00;94948.84;5068631;28;20212;-67
2023/01/21 06:49:39;;;;;;;1999.90;999.90;;;;;;;-1.60;100.00;94946.94;5068601;28;20224;-68
2023/01/21 06:52:04;;;;;;;1999.90;999.90;;;;;;;-1.53;100.00;94951.72;5068564;28;20219;-68
2023/01/21 06:54:30;;;;;;;1999.90;999.90;;;;;;;-1.53;100.00;94957.09;5068518;28;20179;-67
2023/01/21 06:56:55;;;;;;;1999.90;999.90;;;;;;;-1.44;100.00;94941.66;5068517;28;20177;-67
2023/01/21 06:59:21;;;;;;;1999.90;999.90;;;;;;;-1.48;100.00;94948.81;5068394;28;20196;-68
2023/01/21 07:01:46;;;;;;;1999.90;999.90;;;;;;;-1.45;100.00;94959.59;5068508;28;20179;-68
2023/01/21 07:04:12;;;;;;;1999.90;999.90;;;;;;;-1.47;100.00;94958.41;5068301;28;20181;-68
2023/01/21 07:06:38;;;;;;;1999.90;999.90;;;;;;;-1.45;100.00;94958.84;5068217;28;20175;-67
2023/01/21 07:09:04;;;;;;;1999.90;999.90;;;;;;;-1.50;100.00;94972.44;5068320;28;20180;-68
2023/01/21 07:11:30;;;;;;;1999.90;999.90;;;;;;;-1.47;100.00;94977.13;5068774;28;20215;-67
2023/01/21 07:13:56;;;;;;;1999.90;999.90;;;;;;;-1.46;100.00;94984.06;5068262;28;20173;-67
2023/01/21 07:16:21;;;;;;;1999.90;999.90;;;;;;;-1.39;100.00;94984.25;5068488;28;20200;-68
2023/01/21 07:18:47;;;;;;;1999.90;999.90;;;;;;;-1.37;100.00;94984.69;5068803;28;20180;-67
2023/01/21 07:21:12;;;;;;;1999.90;999.90;;;;;;;-1.35;100.00;94987.84;5068252;28;20178;-67
2023/01/21 07:23:37;;;;;;;1999.90;999.90;;;;;;;-1.48;100.00;95007.69;5067961;28;20173;-66
2023/01/21 07:26:03;;;;;;;1999.90;999.90;;;;;;;-1.42;100.00;95011.72;5068120;28;20177;-67
2023/01/21 07:28:28;;;;;;;1999.90;999.90;;;;;;;-1.42;100.00;95019.75;5067814;28;20182;-67
2023/01/21 07:30:54;;;;;;;1999.90;999.90;;;;;;;-1.42;100.00;95025.09;5067773;28;20173;-68
2023/01/21 07:33:19;;;;;;;1999.90;999.90;;;;;;;-1.42;100.00;95038.47;5068537;28;20184;-69
2023/01/21 07:35:44;;;;;;;1999.90;999.90;;;;;;;-1.50;100.00;95045.50;5068334;28;20244;-68
2023/01/21 07:38:10;;;;;;;1999.90;999.90;;;;;;;-1.41;100.00;95046.19;5067983;28;20177;-68
2023/01/21 07:40:35;;;;;;;1999.90;999.90;;;;;;;-1.39;100.00;95054.63;5068080;28;20178;-67
2023/01/21 07:43:00;;;;;;;1999.90;999.90;;;;;;;-1.31;100.00;95051.06;5067530;28;20266;-68
2023/01/21 07:45:26;;;;;;;1999.90;999.90;;;;;;;-1.20;100.00;95051.41;5068327;28;20183;-68
2023/01/21 07:47:51;;;;;;;1999.90;999.90;;;;;;;-1.15;100.00;95059.19;5067474;28;20183;-67
2023/01/21 07:50:17;;;;;;;1999.90;999.90;;;;;;;-1.22;100.00;95069.69;5067799;28;20220;-67
2023/01/21 07:52:42;;;;;;;1999.90;999.90;;;;;;;-1.23;100.00;95076.97;5068063;28;20180;-67
2023/01/21 07:55:08;;;;;;;1999.90;999.90;;;;;;;-1.21;100.00;95082.75;5068113;28;20228;-67
2023/01/21 07:57:34;;;;;;;1999.90;999.90;;;;;;;-1.19;100.00;95091.22;5067276;28;20406;-67
2023/01/21 07:59:59;;;;;;;1999.90;999.90;;;;;;;-1.25;100.00;95105.16;5067942;28;20195;-67
2023/01/21 08:02:24;;;;;;;1999.90;999.90;;;;;;;-1.35;100.00;95102.97;5067272;28;20354;-67
2023/01/21 08:04:50;;;;;;;1999.90;999.90;;;;;;;-1.23;100.00;95110.97;5068060;28;20175;-67
2023/01/21 08:07:15;;;;;;;1999.90;999.90;;;;;;;-1.35;100.00;95113.66;5067792;28;20238;-67
2023/01/21 08:09:41;;;;;;;1999.90;999.90;;;;;;;-1.36;100.00;95114.75;5066912;28;20170;-67
2023/01/21 08:12:07;;;;;;;1999.90;999.90;;;;;;;-1.41;100.00;95117.66;5067523;28;20172;-67
2023/01/21 08:14:33;;;;;;;1999.90;999.90;;;;;;;-1.29;100.00;95118.44;5066619;28;20263;-67
2023/01/21 08:16:59;;;;;;;1999.90;999.90;;;;;;;-1.07;100.00;95126.03;5066914;28;20166;-66
2023/01/21 08:19:24;;;;;;;1999.90;999.90;;;;;;;-0.94;100.00;95116.09;5067488;28;20196;-67
2023/01/21 08:21:50;;;;;;;1999.90;999.90;;;;;;;-0.94;100.00;95134.84;5067191;28;20201;-66
2023/01/21 08:24:15;;;;;;;1999.90;999.90;;;;;;;-1.03;100.00;95147.56;5067791;28;20167;-66
2023/01/21 08:26:41;;;;;;;1999.90;999.90;;;;;;;-1.15;100.00;95169.00;5067378;28;20165;-66
2023/01/21 08:29:06;;;;;;;1999.90;999.90;;;;;;;-1.14;100.00;95170.56;5067470;28;20162;-66
2023/01/21 08:31:31;;;;;;;1999.90;999.90;;;;;;;-1.01;100.00;95177.47;5067293;28;20162;-66
2023/01/21 08:33:57;;;;;;;1999.90;999.90;;;;;;;-1.10;100.00;95200.91;5067092;28;20191;-68
2023/01/21 08:36:23;;;;;;;1999.90;999.90;;;;;;;-1.17;100.00;95206.81;5067516;28;20197;-69
2023/01/21 08:38:53;;;;;;;1999.90;999.90;;;;;;;-1.15;100.00;95209.16;5068300;28;20162;-67
2023/01/21 08:41:18;;;;;;;1999.90;999.90;;;;;;;-0.97;100.00;95207.84;5071097;28;20168;-68
2023/01/21 08:43:44;;;;;;;1999.90;999.90;;;;;;;-0.93;100.00;95206.84;5070937;28;20175;-67
2023/01/21 08:46:09;;;;;;;1999.90;999.90;;;;;;;-0.81;100.00;95219.44;5071358;28;20166;-67
2023/01/21 08:48:36;;;;;;;1999.90;999.90;;;;;;;-0.74;100.00;95225.81;5070500;28;20273;-68
2023/01/21 08:51:02;;;;;;;1999.90;999.90;;;;;;;-0.73;100.00;95237.34;5071338;28;20167;-69
2023/01/21 08:53:27;;;;;;;1999.90;999.90;;;;;;;-0.72;100.00;95241.56;5070787;28;20168;-68
2023/01/21 08:55:57;;;;;;;1999.90;999.90;;;;;;;-0.71;100.00;95251.16;5071269;28;20186;-68
2023/01/21 08:58:22;;;;;;;1999.90;999.90;;;;;;;-0.82;100.00;95258.88;5070956;28;20170;-69
2023/01/21 09:00:50;;;;;;;1999.90;999.90;;;;;;;-0.68;100.00;95266.59;5070842;28;20190;-69
2023/01/21 09:03:16;;;;;;;1999.90;999.90;;;;;;;-0.73;100.00;95261.44;5070525;28;20164;-68
2023/01/21 09:05:42;;;;;;;1999.90;999.90;;;;;;;-0.70;100.00;95269.59;5071116;28;20163;-69
2023/01/21 09:08:07;;;;;;;1999.90;999.90;;;;;;;-0.74;100.00;95268.69;5071036;28;20163;-69
2023/01/21 09:13:18;;;;;;;1999.90;999.90;;;;;;;-0.52;100.00;95267.47;5088161;28;20234;-68
2023/01/21 09:15:44;;;;;;;1999.90;999.90;;;;;;;-0.42;100.00;95267.00;5070414;28;20195;-69
2023/01/21 09:18:10;;;;;;;1999.90;999.90;;;;;;;-0.59;100.00;95277.97;5070117;28;20210;-69
2023/01/21 09:20:36;;;;;;;1999.90;999.90;;;;;;;-0.40;100.00;95278.19;5070156;28;20187;-69
2023/01/21 09:23:22;;;;;;;1999.90;999.90;;;;;;;-0.26;100.00;95278.59;5070807;28;20168;-69
2023/01/21 09:25:47;;;;;;;1999.90;999.90;;;;;;;-0.27;100.00;95290.47;5087561;28;20168;-69
2023/01/21 09:28:12;;;;;;;1999.90;999.90;;;;;;;-0.23;100.00;95294.03;5070207;28;20210;-68
2023/01/21 09:30:38;;;;;;;1999.90;999.90;;;;;;;-0.21;100.00;95307.91;5070263;28;20274;-69
2023/01/21 09:33:03;;;;;;;1999.90;999.90;;;;;;;0.00;100.00;95309.31;5070519;28;20172;-69
2023/01/21 09:35:29;;;;;;;1999.90;999.90;;;;;;;0.05;100.00;95316.38;5070062;28;20203;-69
2023/01/21 09:37:54;;;;;;;1999.90;999.90;;;;;;;-0.02;100.00;95340.28;5069913;28;20171;-68
2023/01/21 09:40:19;;;;;;;1999.90;999.90;;;;;;;-0.05;100.00;95343.66;5070232;28;20310;-68
2023/01/21 09:42:46;;;;;;;1999.90;999.90;;;;;;;0.16;100.00;95346.97;5070385;28;20169;-69
2023/01/21 09:45:13;;;;;;;1999.90;999.90;;;;;;;0.23;100.00;95351.78;5070488;28;20167;-68
2023/01/21 09:47:42;;;;;;;1999.90;999.90;;;;;;;0.38;100.00;95359.91;5070149;28;20201;-68
2023/01/21 09:50:22;;;;;;;1999.90;999.90;;;;;;;0.31;100.00;95365.06;5069620;28;20211;-69
2023/01/21 09:52:53;;;;;;;1999.90;999.90;;;;;;;0.42;100.00;95374.22;5070117;28;20239;-69
2023/01/21 09:55:37;;;;;;;1999.90;999.90;;;;;;;0.53;100.00;95369.94;5070038;28;20208;-69
2023/01/21 09:58:10;;;;;;;1999.90;999.90;;;;;;;0.34;100.00;95382.41;5070226;28;20218;-68
2023/01/21 10:00:51;;;;;;;1999.90;999.90;;;;;;;0.48;100.00;95364.81;5069530;28;20187;-69
2023/01/21 10:03:25;;;;;;;1999.90;999.90;;;;;;;0.43;100.00;95383.84;5070048;28;20169;-69
2023/01/21 10:06:02;;;;;;;1999.90;999.90;;;;;;;0.36;100.00;95386.31;5069861;28;20168;-69
2023/01/21 10:08:40;;;;;;;1999.90;999.90;;;;;;;0.29;100.00;95396.84;5070104;28;20175;-69
2023/01/21 10:11:26;;;;;;;1999.90;999.90;;;;;;;0.00;100.00;95394.41;5069397;28;20578;-68
2023/01/21 10:14:04;;;;;;;1999.90;999.90;;;;;;;-0.05;100.00;95391.94;5069477;28;20195;-68
2023/01/21 10:16:57;;;;;;;1999.90;999.90;;;;;;;-0.01;100.00;95393.63;5069648;28;20210;-69
2023/01/21 10:19:39;;;;;;;1999.90;999.90;;;;;;;0.19;100.00;95377.72;5069801;28;20215;-70
2023/01/21 10:22:13;;;;;;;1999.90;999.90;;;;;;;0.09;100.00;95381.66;5069868;28;20168;-67
2023/01/21 10:24:45;;;;;;;1999.90;999.90;;;;;;;0.10;100.00;95377.84;5069448;28;20172;-67
2023/01/21 10:27:22;;;;;;;1999.90;999.90;;;;;;;0.28;100.00;95363.06;5069968;28;20175;-68
2023/01/21 10:29:53;;;;;;;1999.90;999.90;;;;;;;0.23;100.00;95357.94;5069337;28;20238;-68
2023/01/21 10:32:25;;;;;;;1999.90;999.90;;;;;;;0.08;100.00;95352.47;5069605;28;20217;-68
2023/01/21 10:34:53;;;;;;;1999.90;999.90;;;;;;;0.17;100.00;95355.84;5069678;28;20200;-69
2023/01/21 10:37:36;;;;;;;1999.90;999.90;;;;;;;-0.03;100.00;95349.47;5069116;28;20165;-68
2023/01/21 10:40:43;;;;;;;1999.90;999.90;;;;;;;-0.10;100.00;95349.25;5069524;28;20169;-68
2023/01/21 10:43:38;;;;;;;1999.90;999.90;;;;;;;-0.12;100.00;95346.09;5069812;28;20178;-68
2023/01/21 10:46:22;;;;;;;1999.90;999.90;;;;;;;-0.11;100.00;95344.97;5068979;28;20200;-68
2023/01/21 10:48:57;;;;;;;1999.90;999.90;;;;;;;-0.05;100.00;95332.91;5068938;28;20219;-68
2023/01/21 10:51:33;;;;;;;1999.90;999.90;;;;;;;0.04;100.00;95334.34;5069372;28;20320;-67
2023/01/21 10:54:10;;;;;;;1999.90;999.90;;;;;;;-0.28;100.00;95337.19;5069345;28;20279;-67
2023/01/21 10:57:24;;;;;;;1999.90;999.90;;;;;;;-0.05;100.00;95322.19;5068660;28;20218;-68
2023/01/21 10:59:51;;;;;;;1999.90;999.90;;;;;;;-0.12;100.00;95332.69;5046005;28;20203;-67
2023/01/21 11:02:28;;;;;;;1999.90;999.90;;;;;;;-0.01;100.00;95317.69;5067824;28;20177;-68